Time;durP1;ratioP1;P1;durP2;ratioP2;P2;SDS_P1;SDS_P2;PMS_P1;PMS_P2;Temp;Humidity;BMP_temperature;BMP_pressure;BME280_temperature;BME280_humidity;BME280_pressure;Samples;Min_cycle;Max_cycle;Signal;HPM_P1;HPM_P2
2021/12/31 00:00:41;;;;;;;;;;;;;;;;;;4871392;29;19927;-80
2021/12/31 00:03:07;;;;;;;;;;;;;;;;;;4886219;29;19922;-80
2021/12/31 00:05:33;;;;;;;;;;;;;;;;;;4885511;29;19934;-81
2021/12/31 00:07:59;;;;;;;;;;;;;;;;;;4900753;29;19941;-80
2021/12/31 00:10:25;;;;;;;;;;;;;;;;;;4881800;29;19966;-80
2021/12/31 00:12:51;;;;;;;;;;;;;;;;;;4899427;29;20367;-81
2021/12/31 00:15:17;;;;;;;;;;;;;;;;;;4902224;29;19923;-81
2021/12/31 00:17:43;;;;;;;;;;;;;;;;;;4874129;29;19923;-80
2021/12/31 00:20:16;;;;;;;;;;;;;;;;;;4882477;29;19927;-81
2021/12/31 00:25:08;;;;;;;;;;;;;;;;;;4900472;29;20009;-80
2021/12/31 00:27:34;;;;;;;;;;;;;;;;;;4885279;29;19927;-80
2021/12/31 00:30:00;;;;;;;;;;;;;;;;;;4867776;29;19946;-81
2021/12/31 00:32:29;;;;;;;;;;;;;;;;;;4881594;29;19934;-79
2021/12/31 00:34:58;;;;;;;;;;;;;;;;;;4873642;29;19919;-80
2021/12/31 00:37:30;;;;;;;;;;;;;;;;;;4901026;29;20279;-80
2021/12/31 00:39:59;;;;;;;;;;;;;;;;;;4874363;29;19919;-80
2021/12/31 00:42:27;;;;;;;;;;;;;;;;;;4882330;29;19926;-80
2021/12/31 00:44:53;;;;;;;;;;;;;;;;;;4875011;29;20009;-80
2021/12/31 00:47:19;;;;;;;;;;;;;;;;;;4880038;29;19927;-80
2021/12/31 00:49:45;;;;;;;;;;;;;;;;;;4888470;29;19927;-80
2021/12/31 00:52:15;;;;;;;;;;;;;;;;;;4883433;29;19923;-80
2021/12/31 00:54:41;;;;;;;;;;;;;;;;;;4886513;29;20103;-80
2021/12/31 00:57:07;;;;;;;;;;;;;;;;;;4875197;29;19923;-80
2021/12/31 00:59:33;;;;;;;;;;;;;;;;;;4898558;29;19923;-80
2021/12/31 01:02:03;;;;;;;;;;;;;;;;;;4881592;29;19919;-80
2021/12/31 01:04:35;;;;;;;;;;;;;;;;;;4880556;29;20017;-80
2021/12/31 01:07:01;;;;;;;;;;;;;;;;;;4900204;29;19934;-81
2021/12/31 01:09:27;;;;;;;;;;;;;;;;;;4878569;29;19927;-79
2021/12/31 01:11:55;;;;;;;;;;;;;;;;;;4887547;29;19954;-83
2021/12/31 01:16:57;;;;;;;;;;;;;;;;;;4887656;29;19925;-82
2021/12/31 01:21:49;;;;;;;;;;;;;;;;;;4901552;29;19922;-83
2021/12/31 01:24:15;;;;;;;;;;;;;;;;;;4885801;29;19929;-83
2021/12/31 01:26:41;;;;;;;;;;;;;;;;;;4887950;29;19929;-85
2021/12/31 01:29:07;;;;;;;;;;;;;;;;;;4886405;29;19927;-83
2021/12/31 01:31:33;;;;;;;;;;;;;;;;;;4878645;29;20620;-84
2021/12/31 01:33:59;;;;;;;;;;;;;;;;;;4867816;29;20025;-84
2021/12/31 01:36:25;;;;;;;;;;;;;;;;;;4892921;29;19919;-84
2021/12/31 01:38:51;;;;;;;;;;;;;;;;;;4900011;29;19945;-85
2021/12/31 01:41:19;;;;;;;;;;;;;;;;;;4877042;29;19927;-83
2021/12/31 01:43:45;;;;;;;;;;;;;;;;;;4896437;29;19990;-83
2021/12/31 01:46:14;;;;;;;;;;;;;;;;;;4879837;29;20402;-84
2021/12/31 01:51:24;;;;;;;;;;;;;;;;;;4893741;29;19927;-84
2021/12/31 01:53:50;;;;;;;;;;;;;;;;;;4895059;29;20041;-84
2021/12/31 01:56:16;;;;;;;;;;;;;;;;;;4881794;29;19927;-84
2021/12/31 01:58:42;;;;;;;;;;;;;;;;;;4880160;29;19919;-83
2021/12/31 02:01:08;;;;;;;;;;;;;;;;;;4881545;29;19950;-83
2021/12/31 02:03:34;;;;;;;;;;;;;;;;;;4881782;29;19923;-83
2021/12/31 02:06:00;;;;;;;;;;;;;;;;;;4882716;29;20359;-85
2021/12/31 02:08:28;;;;;;;;;;;;;;;;;;4882130;29;20010;-84
2021/12/31 02:10:54;;;;;;;;;;;;;;;;;;4883748;29;20381;-84
2021/12/31 02:13:20;;;;;;;;;;;;;;;;;;4878901;29;19927;-84
2021/12/31 02:15:46;;;;;;;;;;;;;;;;;;4880734;29;20279;-83
2021/12/31 02:18:12;;;;;;;;;;;;;;;;;;4882685;29;19926;-85
2021/12/31 02:20:44;;;;;;;;;;;;;;;;;;4898648;29;20059;-84
2021/12/31 02:23:13;;;;;;;;;;;;;;;;;;4898652;29;19957;-83
2021/12/31 02:25:39;;;;;;;;;;;;;;;;;;4866893;29;19930;-83
2021/12/31 02:28:05;;;;;;;;;;;;;;;;;;4897722;29;20367;-83
2021/12/31 02:30:32;;;;;;;;;;;;;;;;;;4896058;29;20575;-83
2021/12/31 02:32:59;;;;;;;;;;;;;;;;;;4878720;29;19923;-85
2021/12/31 02:35:25;;;;;;;;;;;;;;;;;;4879184;29;19942;-84
2021/12/31 02:37:51;;;;;;;;;;;;;;;;;;4880200;29;20563;-84
2021/12/31 02:40:17;;;;;;;;;;;;;;;;;;4895559;29;19926;-83
2021/12/31 02:42:43;;;;;;;;;;;;;;;;;;4881171;29;19967;-85
2021/12/31 02:45:09;;;;;;;;;;;;;;;;;;4878654;29;19923;-82
2021/12/31 02:47:35;;;;;;;;;;;;;;;;;;4880863;29;19926;-84
2021/12/31 02:50:04;;;;;;;;;;;;;;;;;;4880072;29;19923;-83
2021/12/31 02:52:32;;;;;;;;;;;;;;;;;;4890877;29;19998;-85
2021/12/31 02:55:00;;;;;;;;;;;;;;;;;;4881749;29;19927;-84
2021/12/31 02:57:26;;;;;;;;;;;;;;;;;;4878859;29;20021;-83
2021/12/31 02:59:52;;;;;;;;;;;;;;;;;;4881539;29;20017;-83
2021/12/31 03:02:23;;;;;;;;;;;;;;;;;;4894500;29;19919;-82
2021/12/31 03:04:49;;;;;;;;;;;;;;;;;;4867946;29;20762;-82
2021/12/31 03:07:15;;;;;;;;;;;;;;;;;;4875748;29;19970;-82
2021/12/31 03:09:46;;;;;;;;;;;;;;;;;;4882335;29;19931;-83
2021/12/31 03:12:13;;;;;;;;;;;;;;;;;;4895873;29;20348;-82
2021/12/31 03:14:39;;;;;;;;;;;;;;;;;;4877768;29;19933;-83
2021/12/31 03:17:05;;;;;;;;;;;;;;;;;;4880486;29;20239;-82
2021/12/31 03:19:31;;;;;;;;;;;;;;;;;;4877884;29;19992;-84
2021/12/31 03:21:57;;;;;;;;;;;;;;;;;;4882183;29;19935;-82
2021/12/31 03:24:23;;;;;;;;;;;;;;;;;;4874181;29;19935;-82
2021/12/31 03:26:49;;;;;;;;;;;;;;;;;;4880872;29;19916;-85
2021/12/31 03:29:15;;;;;;;;;;;;;;;;;;4872470;29;20006;-84
2021/12/31 03:31:41;;;;;;;;;;;;;;;;;;4879594;29;20422;-83
2021/12/31 03:34:07;;;;;;;;;;;;;;;;;;4894006;29;19927;-83
2021/12/31 03:36:45;;;;;;;;;;;;;;;;;;4879935;29;19942;-84
2021/12/31 03:39:14;;;;;;;;;;;;;;;;;;4890924;29;19919;-83
2021/12/31 03:41:40;;;;;;;;;;;;;;;;;;4879896;29;20290;-83
2021/12/31 03:44:06;;;;;;;;;;;;;;;;;;4882726;29;19919;-84
2021/12/31 03:46:32;;;;;;;;;;;;;;;;;;4878249;29;19927;-83
2021/12/31 03:48:58;;;;;;;;;;;;;;;;;;4899322;29;19978;-84
2021/12/31 03:51:27;;;;;;;;;;;;;;;;;;4878663;29;19927;-83
2021/12/31 03:53:53;;;;;;;;;;;;;;;;;;4876469;29;19970;-86
2021/12/31 03:56:21;;;;;;;;;;;;;;;;;;4892960;29;20323;-83
2021/12/31 03:58:47;;;;;;;;;;;;;;;;;;4881370;29;19958;-83
2021/12/31 04:01:13;;;;;;;;;;;;;;;;;;4876786;29;19958;-82
2021/12/31 04:03:39;;;;;;;;;;;;;;;;;;4883290;29;19931;-83
2021/12/31 04:06:05;;;;;;;;;;;;;;;;;;4886510;29;20024;-85
2021/12/31 04:08:31;;;;;;;;;;;;;;;;;;4875944;29;19933;-83
2021/12/31 04:10:57;;;;;;;;;;;;;;;;;;4877936;29;20453;-83
2021/12/31 04:13:23;;;;;;;;;;;;;;;;;;4873984;29;19938;-83
2021/12/31 04:15:49;;;;;;;;;;;;;;;;;;4880151;29;19918;-82
2021/12/31 04:18:15;;;;;;;;;;;;;;;;;;4876516;29;19966;-82
2021/12/31 04:20:44;;;;;;;;;;;;;;;;;;4901544;29;19927;-82
2021/12/31 04:23:14;;;;;;;;;;;;;;;;;;4878401;29;20021;-83
2021/12/31 04:25:43;;;;;;;;;;;;;;;;;;4894222;29;19927;-83
2021/12/31 04:28:09;;;;;;;;;;;;;;;;;;4879299;29;20034;-83
2021/12/31 04:30:36;;;;;;;;;;;;;;;;;;4867046;29;19935;-85
2021/12/31 04:33:02;;;;;;;;;;;;;;;;;;4883821;29;20441;-83
2021/12/31 04:35:45;;;;;;;;;;;;;;;;;;4879739;29;19926;-82
2021/12/31 04:38:20;;;;;;;;;;;;;;;;;;4883815;29;19919;-81
2021/12/31 04:40:46;;;;;;;;;;;;;;;;;;4876384;29;19922;-83
2021/12/31 04:43:12;;;;;;;;;;;;;;;;;;4883787;29;19925;-83
2021/12/31 04:45:38;;;;;;;;;;;;;;;;;;4898901;29;20252;-83
2021/12/31 04:48:04;;;;;;;;;;;;;;;;;;4883220;29;19942;-83
2021/12/31 04:50:30;;;;;;;;;;;;;;;;;;4867390;29;19946;-84
2021/12/31 04:52:56;;;;;;;;;;;;;;;;;;4882118;29;19919;-83
2021/12/31 04:55:22;;;;;;;;;;;;;;;;;;4879139;29;20346;-82
2021/12/31 04:57:49;;;;;;;;;;;;;;;;;;4886503;29;19934;-84
2021/12/31 05:00:15;;;;;;;;;;;;;;;;;;4865132;29;19919;-82
2021/12/31 05:02:41;;;;;;;;;;;;;;;;;;4880542;29;19927;-82
2021/12/31 05:05:07;;;;;;;;;;;;;;;;;;4882096;29;20385;-84
2021/12/31 05:07:33;;;;;;;;;;;;;;;;;;4879585;29;19927;-83
2021/12/31 05:09:59;;;;;;;;;;;;;;;;;;4898746;29;19930;-83
2021/12/31 05:12:31;;;;;;;;;;;;;;;;;;4883530;29;19919;-83
2021/12/31 05:14:57;;;;;;;;;;;;;;;;;;4899960;29;19928;-83
2021/12/31 05:17:23;;;;;;;;;;;;;;;;;;4893134;29;19930;-83
2021/12/31 05:19:49;;;;;;;;;;;;;;;;;;4901009;29;19927;-84
2021/12/31 05:22:16;;;;;;;;;;;;;;;;;;4881916;29;19932;-84
2021/12/31 05:24:45;;;;;;;;;;;;;;;;;;4878976;29;19919;-83
2021/12/31 05:27:11;;;;;;;;;;;;;;;;;;4873154;29;19923;-83
2021/12/31 05:29:37;;;;;;;;;;;;;;;;;;4876034;29;20351;-85
2021/12/31 05:32:03;;;;;;;;;;;;;;;;;;4899356;29;20022;-83
2021/12/31 05:34:29;;;;;;;;;;;;;;;;;;4882302;29;20019;-84
2021/12/31 05:36:55;;;;;;;;;;;;;;;;;;4878809;29;20003;-83
2021/12/31 05:39:21;;;;;;;;;;;;;;;;;;4896379;29;20283;-87
2021/12/31 05:41:47;;;;;;;;;;;;;;;;;;4883683;29;20320;-83
2021/12/31 05:44:13;;;;;;;;;;;;;;;;;;4898620;29;19945;-85
2021/12/31 05:46:44;;;;;;;;;;;;;;;;;;4872477;29;19999;-83
2021/12/31 05:49:10;;;;;;;;;;;;;;;;;;4881531;29;19938;-84
2021/12/31 05:51:36;;;;;;;;;;;;;;;;;;4878424;29;19923;-84
2021/12/31 05:54:01;;;;;;;;;;;;;;;;;;4886679;29;19926;-84
2021/12/31 05:56:27;;;;;;;;;;;;;;;;;;4879689;29;20556;-82
2021/12/31 05:58:53;;;;;;;;;;;;;;;;;;4889445;29;19994;-81
2021/12/31 06:01:19;;;;;;;;;;;;;;;;;;4879633;29;19934;-84
2021/12/31 06:03:45;;;;;;;;;;;;;;;;;;4884875;29;20009;-83
2021/12/31 06:06:12;;;;;;;;;;;;;;;;;;4881129;29;20050;-84
2021/12/31 06:08:56;;;;;;;;;;;;;;;;;;4898832;29;19919;-81
2021/12/31 06:11:22;;;;;;;;;;;;;;;;;;4875852;29;19919;-82
2021/12/31 06:13:55;;;;;;;;;;;;;;;;;;4898160;29;20018;-83
2021/12/31 06:16:21;;;;;;;;;;;;;;;;;;4883279;29;19918;-83
2021/12/31 06:18:49;;;;;;;;;;;;;;;;;;4888283;29;19926;-83
2021/12/31 06:21:26;;;;;;;;;;;;;;;;;;4878389;29;20188;-86
2021/12/31 06:23:57;;;;;;;;;;;;;;;;;;4879882;29;20010;-83
2021/12/31 06:26:24;;;;;;;;;;;;;;;;;;4879610;29;20389;-83
2021/12/31 06:29:03;;;;;;;;;;;;;;;;;;4882284;29;20371;-85
2021/12/31 06:31:31;;;;;;;;;;;;;;;;;;4881057;29;19923;-82
2021/12/31 06:33:57;;;;;;;;;;;;;;;;;;4882306;29;19930;-82
2021/12/31 06:36:35;;;;;;;;;;;;;;;;;;4867038;29;19941;-82
2021/12/31 06:39:05;;;;;;;;;;;;;;;;;;4881824;29;19922;-83
2021/12/31 06:41:42;;;;;;;;;;;;;;;;;;;;;
2021/12/31 06:44:09;;;;;;;;;;;;;;;;;;4880711;29;19926;-85
2021/12/31 06:46:35;;;;;;;;;;;;;;;;;;4879610;29;19926;-84
2021/12/31 06:49:04;;;;;;;;;;;;;;;;;;4877672;29;19982;-85
2021/12/31 06:51:33;;;;;;;;;;;;;;;;;;4890727;29;22463;-85
2021/12/31 06:53:59;;;;;;;;;;;;;;;;;;4884188;29;19948;-84
2021/12/31 06:56:25;;;;;;;;;;;;;;;;;;4883230;29;19925;-82
2021/12/31 06:58:51;;;;;;;;;;;;;;;;;;4886660;29;19954;-83
2021/12/31 07:01:17;;;;;;;;;;;;;;;;;;4876498;29;20334;-83
2021/12/31 07:03:43;;;;;;;;;;;;;;;;;;4884366;29;19919;-83
2021/12/31 07:06:09;;;;;;;;;;;;;;;;;;4885068;29;20013;-84
2021/12/31 07:08:38;;;;;;;;;;;;;;;;;;4879523;29;19925;-84
2021/12/31 07:11:04;;;;;;;;;;;;;;;;;;4878703;29;19932;-83
2021/12/31 07:13:30;;;;;;;;;;;;;;;;;;4878071;29;19986;-84
2021/12/31 07:15:56;;;;;;;;;;;;;;;;;;4868159;29;20382;-84
2021/12/31 07:18:22;;;;;;;;;;;;;;;;;;4882167;29;20465;-84
2021/12/31 07:20:48;;;;;;;;;;;;;;;;;;4881392;29;19918;-84
2021/12/31 07:23:14;;;;;;;;;;;;;;;;;;4876242;29;19926;-84
2021/12/31 07:25:40;;;;;;;;;;;;;;;;;;4875584;29;20041;-83
2021/12/31 07:28:06;;;;;;;;;;;;;;;;;;4881556;29;19918;-82
2021/12/31 07:30:32;;;;;;;;;;;;;;;;;;4881900;29;20706;-83
2021/12/31 07:32:58;;;;;;;;;;;;;;;;;;4877915;29;20018;-82
2021/12/31 07:35:24;;;;;;;;;;;;;;;;;;4877718;29;19926;-83
2021/12/31 07:37:53;;;;;;;;;;;;;;;;;;4868406;29;20010;-84
2021/12/31 07:40:26;;;;;;;;;;;;;;;;;;4874374;29;19923;-83
2021/12/31 07:42:52;;;;;;;;;;;;;;;;;;4868429;29;20409;-83
2021/12/31 07:45:18;;;;;;;;;;;;;;;;;;4876844;29;19930;-84
2021/12/31 07:47:44;;;;;;;;;;;;;;;;;;4895502;29;19926;-84
2021/12/31 07:50:11;;;;;;;;;;;;;;;;;;4879556;29;20371;-84
2021/12/31 07:52:37;;;;;;;;;;;;;;;;;;4879856;29;19926;-87
2021/12/31 07:55:03;;;;;;;;;;;;;;;;;;4898519;29;19930;-85
2021/12/31 07:57:29;;;;;;;;;;;;;;;;;;4876882;29;20382;-86
2021/12/31 07:59:58;;;;;;;;;;;;;;;;;;4877012;29;19934;-85
2021/12/31 08:02:24;;;;;;;;;;;;;;;;;;4863659;29;19922;-85
2021/12/31 08:04:50;;;;;;;;;;;;;;;;;;4899836;29;20009;-85
2021/12/31 08:07:16;;;;;;;;;;;;;;;;;;4877915;29;19926;-84
2021/12/31 08:09:42;;;;;;;;;;;;;;;;;;4870026;29;19931;-85
2021/12/31 08:12:08;;;;;;;;;;;;;;;;;;4886595;29;19997;-84
2021/12/31 08:14:34;;;;;;;;;;;;;;;;;;4891973;29;19923;-84
2021/12/31 08:17:00;;;;;;;;;;;;;;;;;;4882198;29;19973;-84
2021/12/31 08:19:26;;;;;;;;;;;;;;;;;;4865672;29;20367;-86
2021/12/31 08:21:52;;;;;;;;;;;;;;;;;;4896722;29;19919;-86
2021/12/31 08:24:18;;;;;;;;;;;;;;;;;;4879608;29;19934;-85
2021/12/31 08:26:44;;;;;;;;;;;;;;;;;;4882928;29;20306;-86
2021/12/31 08:29:18;;;;;;;;;;;;;;;;;;4881383;29;19974;-87
2021/12/31 08:31:47;;;;;;;;;;;;;;;;;;4884959;29;20288;-85
2021/12/31 08:34:13;;;;;;;;;;;;;;;;;;4878665;29;19919;-86
2021/12/31 08:36:39;;;;;;;;;;;;;;;;;;4884756;29;19919;-85
2021/12/31 08:39:07;;;;;;;;;;;;;;;;;;4886853;29;19923;-86
2021/12/31 08:41:33;;;;;;;;;;;;;;;;;;4883682;29;19934;-85
2021/12/31 08:43:59;;;;;;;;;;;;;;;;;;4889776;29;19925;-86
2021/12/31 08:46:25;;;;;;;;;;;;;;;;;;4899528;29;19955;-85
2021/12/31 08:48:51;;;;;;;;;;;;;;;;;;4884439;29;19923;-85
2021/12/31 08:51:17;;;;;;;;;;;;;;;;;;4881260;29;20039;-86
2021/12/31 08:53:43;;;;;;;;;;;;;;;;;;4873241;29;20031;-88
2021/12/31 08:56:09;;;;;;;;;;;;;;;;;;4883437;29;19930;-88
2021/12/31 08:58:35;;;;;;;;;;;;;;;;;;4867416;29;20255;-87
2021/12/31 09:01:01;;;;;;;;;;;;;;;;;;4888542;29;19926;-87
2021/12/31 09:03:27;;;;;;;;;;;;;;;;;;4877279;29;19934;-87
2021/12/31 09:05:53;;;;;;;;;;;;;;;;;;4888658;29;19927;-86
2021/12/31 09:08:23;;;;;;;;;;;;;;;;;;4897804;29;20425;-87
2021/12/31 09:10:52;;;;;;;;;;;;;;;;;;4904934;29;19976;-88
2021/12/31 09:13:30;;;;;;;;;;;;;;;;;;;;;
2021/12/31 09:15:59;;;;;;;;;;;;;;;;;;4896901;29;20101;-86
2021/12/31 09:18:25;;;;;;;;;;;;;;;;;;4882487;29;19941;-86
2021/12/31 09:20:53;;;;;;;;;;;;;;;;;;4875014;29;20359;-88
2021/12/31 09:23:21;;;;;;;;;;;;;;;;;;4895878;29;20329;-87
2021/12/31 09:25:47;;;;;;;;;;;;;;;;;;4887815;29;20053;-86
2021/12/31 09:28:34;;;;;;;;;;;;;;;;;;4878036;29;20011;-88
2021/12/31 09:31:05;;;;;;;;;;;;;;;;;;4885895;29;20390;-87
2021/12/31 09:33:31;;;;;;;;;;;;;;;;;;4899955;29;19982;-87
2021/12/31 09:35:57;;;;;;;;;;;;;;;;;;4903023;29;19939;-87
2021/12/31 09:38:23;;;;;;;;;;;;;;;;;;4880381;29;19927;-88
2021/12/31 09:40:52;;;;;;;;;;;;;;;;;;4888378;29;19919;-87
2021/12/31 09:43:19;;;;;;;;;;;;;;;;;;4887528;29;19977;-88
2021/12/31 09:45:50;;;;;;;;;;;;;;;;;;4886877;29;19967;-87
2021/12/31 09:48:16;;;;;;;;;;;;;;;;;;4883335;29;20018;-87
2021/12/31 09:50:42;;;;;;;;;;;;;;;;;;4886855;29;20319;-87
2021/12/31 09:53:11;;;;;;;;;;;;;;;;;;4888106;29;20013;-88
2021/12/31 09:55:40;;;;;;;;;;;;;;;;;;4874335;29;19919;-87
2021/12/31 09:58:06;;;;;;;;;;;;;;;;;;4883015;29;19926;-88
2021/12/31 10:00:41;;;;;;;;;;;;;;;;;;4882592;29;21921;-87
2021/12/31 10:03:14;;;;;;;;;;;;;;;;;;4884593;29;19969;-87
2021/12/31 10:05:41;;;;;;;;;;;;;;;;;;4881760;29;19962;-87
2021/12/31 10:08:07;;;;;;;;;;;;;;;;;;4874199;29;19919;-87
2021/12/31 10:10:33;;;;;;;;;;;;;;;;;;4880902;29;19931;-85
2021/12/31 10:13:01;;;;;;;;;;;;;;;;;;4889930;29;19923;-89
2021/12/31 10:15:28;;;;;;;;;;;;;;;;;;4882036;29;19922;-87
2021/12/31 10:18:15;;;;;;;;;;;;;;;;;;4885090;29;19931;-87
2021/12/31 10:20:40;;;;;;;;;;;;;;;;;;4903675;29;19970;-88
2021/12/31 10:23:09;;;;;;;;;;;;;;;;;;4887924;29;19930;-87
2021/12/31 10:25:36;;;;;;;;;;;;;;;;;;4879620;29;19965;-87
2021/12/31 10:28:05;;;;;;;;;;;;;;;;;;4905620;29;19933;-88
2021/12/31 10:30:31;;;;;;;;;;;;;;;;;;4868125;29;19931;-87
2021/12/31 10:33:20;;;;;;;;;;;;;;;;;;4878277;29;19927;-86
2021/12/31 10:35:48;;;;;;;;;;;;;;;;;;4883389;29;20651;-87
2021/12/31 10:38:14;;;;;;;;;;;;;;;;;;4885078;29;19923;-86
2021/12/31 10:40:41;;;;;;;;;;;;;;;;;;4889937;29;19986;-86
2021/12/31 10:43:07;;;;;;;;;;;;;;;;;;4886573;29;20006;-88
2021/12/31 10:45:36;;;;;;;;;;;;;;;;;;4887369;29;19927;-87
2021/12/31 10:48:02;;;;;;;;;;;;;;;;;;4900532;29;19923;-87
2021/12/31 10:50:28;;;;;;;;;;;;;;;;;;4870048;29;20246;-87
2021/12/31 10:55:39;;;;;;;;;;;;;;;;;;4887714;29;20872;-88
2021/12/31 10:58:05;;;;;;;;;;;;;;;;;;4888529;29;20342;-87
2021/12/31 11:00:32;;;;;;;;;;;;;;;;;;4881371;29;22696;-87
2021/12/31 11:02:58;;;;;;;;;;;;;;;;;;4885145;29;19928;-87
2021/12/31 11:05:24;;;;;;;;;;;;;;;;;;4886789;29;19935;-88
2021/12/31 11:07:50;;;;;;;;;;;;;;;;;;4882663;29;19919;-87
2021/12/31 11:10:16;;;;;;;;;;;;;;;;;;4877300;29;19923;-87
2021/12/31 11:12:46;;;;;;;;;;;;;;;;;;4904683;29;19985;-87
2021/12/31 11:15:12;;;;;;;;;;;;;;;;;;4885802;29;20877;-88
2021/12/31 11:17:38;;;;;;;;;;;;;;;;;;4878331;29;19922;-88
2021/12/31 11:20:05;;;;;;;;;;;;;;;;;;4864202;29;19945;-85
2021/12/31 11:22:31;;;;;;;;;;;;;;;;;;4876893;29;19973;-85
2021/12/31 11:24:57;;;;;;;;;;;;;;;;;;4882309;29;19919;-86
2021/12/31 11:27:23;;;;;;;;;;;;;;;;;;4896409;29;19930;-86
2021/12/31 11:29:49;;;;;;;;;;;;;;;;;;4878177;29;19922;-86
2021/12/31 11:32:24;;;;;;;;;;;;;;;;;;4875212;29;19923;-88
2021/12/31 11:34:50;;;;;;;;;;;;;;;;;;4893525;29;19924;-87
2021/12/31 11:49:37;;;;;;;;;;;;;;;;;;4984601;23;19941;-79
2021/12/31 11:52:23;;;;;;;;;;;;;;;;;;4903023;29;19939;-80
2021/12/31 11:55:22;;;;;;;;;;;;;;;;;;4899657;29;19926;-84
2021/12/31 12:01:05;;;;;;;;;;;;;;;;;;4871865;29;19946;-85
2021/12/31 12:03:49;;;;;;;;;;;;;;;;;;4903589;29;19950;-84
2021/12/31 12:13:10;;;;;;;;;;;;;;;;;;;;;
2021/12/31 12:27:58;;;;;;;;;;;;;;;;;;;;;
2021/12/31 12:33:47;;;;;;;;;;;;;;;;;;4907292;29;19923;-79
2021/12/31 12:42:47;;;;;;;;;;;;;;;;;;4894096;29;19986;-80
2021/12/31 12:45:21;;;;;;;;;;;;;;;;;;4885187;29;19919;-81
2021/12/31 12:48:07;;;;;;;;;;;;;;;;;;4881900;29;19941;-81
2021/12/31 12:53:51;;;;;;;;;;;;;;;;;;4873122;29;19923;-81
2021/12/31 12:56:20;;;;;;;;;;;;;;;;;;4882141;29;19929;-81
2021/12/31 12:58:57;;;;;;;;;;;;;;;;;;4891298;29;19918;-80
2021/12/31 13:02:01;;;;;;;;;;;;;;;;;;4894186;29;20005;-82
2021/12/31 13:04:27;;;;;;;;;;;;;;;;;;4888538;29;19927;-81
2021/12/31 13:07:17;;;;;;;;;;;;;;;;;;4885891;29;20390;-81
2021/12/31 13:09:43;;;;;;;;;;;;;;;;;;4884702;29;20360;-85
2021/12/31 13:12:15;;;;;;;;;;;;;;;;;;4858929;29;19931;-83
2021/12/31 13:14:44;;;;;;;;;;;;;;;;;;4881640;29;20017;-82
2021/12/31 13:17:10;;;;;;;;;;;;;;;;;;4891667;29;20300;-83
2021/12/31 13:22:48;;;;;;;;;;;;;;;;;;4819453;29;19967;-82
2021/12/31 13:25:27;;;;;;;;;;;;;;;;;;4878569;29;20018;-82
2021/12/31 13:31:14;;;;;;;;;;;;;;;;;;4893528;29;19930;-85
2021/12/31 13:33:40;;;;;;;;;;;;;;;;;;4867911;29;19934;-84
2021/12/31 13:38:57;;;;;;;;;;;;;;;;;;5303051;23;20294;-85
2021/12/31 13:41:26;;;;;;;;;;;;;;;;;;4924563;28;19922;-85
2021/12/31 13:47:07;;;;;;;;;;;;;;;;;;5004811;23;19933;-87
2021/12/31 13:49:34;;;;;;;;;;;;;;;;;;4906446;29;19923;-89
2021/12/31 13:52:03;;;;;;;;;;;;;;;;;;4902461;29;19920;-90
2021/12/31 13:54:29;;;;;;;;;;;;;;;;;;4909215;29;19930;-88
2021/12/31 13:56:58;;;;;;;;;;;;;;;;;;4897076;29;19925;-91
2021/12/31 13:59:26;;;;;;;;;;;;;;;;;;4905376;29;19923;-91
2021/12/31 14:01:52;;;;;;;;;;;;;;;;;;4895722;29;20425;-89
2021/12/31 14:04:18;;;;;;;;;;;;;;;;;;4890047;29;19922;-90
2021/12/31 14:06:47;;;;;;;;;;;;;;;;;;4914594;29;20388;-89
2021/12/31 14:09:14;;;;;;;;;;;;;;;;;;4890669;29;20369;-89
2021/12/31 14:11:40;;;;;;;;;;;;;;;;;;4907543;29;20397;-89
2021/12/31 14:14:06;;;;;;;;;;;;;;;;;;4891765;29;19923;-88
2021/12/31 14:16:32;;;;;;;;;;;;;;;;;;4878029;29;19927;-86
2021/12/31 14:18:58;;;;;;;;;;;;;;;;;;4896214;29;19922;-85
2021/12/31 14:21:26;;;;;;;;;;;;;;;;;;4885398;29;19934;-88
2021/12/31 14:23:57;;;;;;;;;;;;;;;;;;5056829;27;1986714;-82
2021/12/31 14:26:23;;;;;;;;;;;;;;;;;;5108129;27;19919;-83
2021/12/31 14:28:49;;;;;;;;;;;;;;;;;;5109352;27;19920;-84
2021/12/31 14:31:15;;;;;;;;;;;;;;;;;;5090042;27;19923;-84
2021/12/31 14:33:41;;;;;;;;;;;;;;;;;;5103022;27;20322;-84
2021/12/31 14:36:08;;;;;;;;;;;;;;;;;;5110490;27;19973;-83
2021/12/31 14:38:36;;;;;;;;;;;;;;;;;;5115607;27;19926;-84
2021/12/31 14:41:03;;;;;;;;;;;;;;;;;;5124629;27;20293;-83
2021/12/31 14:43:29;;;;;;;;;;;;;;;;;;5128521;27;19934;-84
2021/12/31 14:45:55;;;;;;;;;;;;;;;;;;5104813;27;19923;-82
2021/12/31 14:48:21;;;;;;;;;;;;;;;;;;5106022;27;19915;-85
2021/12/31 14:50:47;;;;;;;;;;;;;;;;;;5107074;27;20348;-83
2021/12/31 14:53:13;;;;;;;;;;;;;;;;;;5122358;27;19934;-84
2021/12/31 14:55:39;;;;;;;;;;;;;;;;;;5112345;27;19927;-84
2021/12/31 14:58:05;;;;;;;;;;;;;;;;;;5108868;27;20365;-81
2021/12/31 15:00:31;;;;;;;;;;;;;;;;;;5105330;27;20771;-84
2021/12/31 15:02:58;;;;;;;;;;;;;;;;;;5104761;27;19923;-85
2021/12/31 15:05:24;;;;;;;;;;;;;;;;;;5103914;27;19972;-85
2021/12/31 15:07:49;;;;;;;;;;;;;;;;;;5090462;27;19923;-82
2021/12/31 15:10:15;;;;;;;;;;;;;;;;;;5121734;27;19923;-85
2021/12/31 15:12:41;;;;;;;;;;;;;;;;;;5103936;27;19923;-83
2021/12/31 15:15:08;;;;;;;;;;;;;;;;;;5105291;27;19927;-84
2021/12/31 15:17:34;;;;;;;;;;;;;;;;;;5116820;27;19938;-82
2021/12/31 15:20:00;;;;;;;;;;;;;;;;;;5103811;27;19927;-84
2021/12/31 15:22:26;;;;;;;;;;;;;;;;;;5082402;27;20065;-85
2021/12/31 15:24:52;;;;;;;;;;;;;;;;;;5088286;27;19933;-84
2021/12/31 15:27:18;;;;;;;;;;;;;;;;;;5119971;27;19919;-83
2021/12/31 15:29:48;;;;;;;;;;;;;;;;;;5090255;27;19980;-84
2021/12/31 15:32:16;;;;;;;;;;;;;;;;;;5117928;27;19928;-87
2021/12/31 15:34:42;;;;;;;;;;;;;;;;;;5109957;27;19978;-84
2021/12/31 15:37:08;;;;;;;;;;;;;;;;;;5106677;27;19966;-83
2021/12/31 15:39:36;;;;;;;;;;;;;;;;;;5102459;27;20355;-84
2021/12/31 15:42:02;;;;;;;;;;;;;;;;;;5107044;27;19934;-84
2021/12/31 15:44:28;;;;;;;;;;;;;;;;;;5100039;27;19928;-84
2021/12/31 15:46:54;;;;;;;;;;;;;;;;;;5104541;27;20503;-81
2021/12/31 15:49:20;;;;;;;;;;;;;;;;;;5087209;27;19927;-84
2021/12/31 15:51:45;;;;;;;;;;;;;;;;;;5104704;27;20787;-85
2021/12/31 15:54:12;;;;;;;;;;;;;;;;;;5103941;27;19928;-86
2021/12/31 15:56:38;;;;;;;;;;;;;;;;;;5108581;27;19970;-85
2021/12/31 15:59:04;;;;;;;;;;;;;;;;;;5086043;27;19928;-82
2021/12/31 16:01:31;;;;;;;;;;;;;;;;;;5084502;27;21716;-83
2021/12/31 16:03:57;;;;;;;;;;;;;;;;;;5111790;27;19924;-79
2021/12/31 16:06:23;;;;;;;;;;;;;;;;;;5087406;27;19989;-79
2021/12/31 16:08:49;;;;;;;;;;;;;;;;;;5092920;27;19928;-81
2021/12/31 16:11:15;;;;;;;;;;;;;;;;;;5089696;27;19919;-80
2021/12/31 16:13:41;;;;;;;;;;;;;;;;;;5107984;27;20021;-80
2021/12/31 16:16:07;;;;;;;;;;;;;;;;;;5097749;27;20014;-81
2021/12/31 16:18:35;;;;;;;;;;;;;;;;;;5076781;27;20254;-81
2021/12/31 16:21:01;;;;;;;;;;;;;;;;;;5097363;27;19962;-80
2021/12/31 16:23:27;;;;;;;;;;;;;;;;;;5096064;27;19966;-80
2021/12/31 16:25:53;;;;;;;;;;;;;;;;;;5095369;27;20334;-80
2021/12/31 16:28:19;;;;;;;;;;;;;;;;;;5104683;27;19930;-80
2021/12/31 16:30:44;;;;;;;;;;;12.50;99.90;;;;;;5078729;27;19932;-79
2021/12/31 16:33:10;;;;;;;;;;;12.10;99.90;;;;;;5075627;27;19923;-80
2021/12/31 16:35:36;;;;;;;;;;;12.00;99.90;;;;;;5059187;27;19960;-80
2021/12/31 16:38:02;;;;;;;;;;;12.00;99.90;;;;;;5079358;27;19927;-79
2021/12/31 16:40:27;;;;;;;;;;;12.00;99.90;;;;;;5088459;27;19973;-80
2021/12/31 16:42:53;;;;;;;;;;;12.00;99.90;;;;;;5072553;27;19931;-80
2021/12/31 16:45:19;;;;;;;;;;;12.00;99.90;;;;;;5071692;27;19976;-79
2021/12/31 16:47:45;;;;;;;;;;;12.00;99.90;;;;;;5107220;27;19942;-79
2021/12/31 16:50:11;;;;;;;;;;;12.00;99.90;;;;;;5076675;27;20377;-79
2021/12/31 16:52:37;;;;;;;;;;;12.00;99.90;;;;;;5076398;27;19965;-79
2021/12/31 16:55:06;;;;;;;;;;;11.90;99.90;;;;;;5079310;27;20372;-79
2021/12/31 16:57:34;;;;;;;;;;;11.90;99.90;;;;;;5071043;27;20424;-80
2021/12/31 17:00:04;;;;;;;;;;;11.90;99.90;;;;;;5086969;27;19928;-80
2021/12/31 17:02:29;;;;;;;;;;;11.90;99.90;;;;;;5081691;27;19950;-80
2021/12/31 17:04:58;;;;;;;;;;;11.90;99.90;;;;;;5061476;28;19934;-80
2021/12/31 17:07:23;;;;;;;;;;;11.90;99.90;;;;;;5076157;27;19968;-80
2021/12/31 17:09:52;;;;;;;;;;;11.90;99.90;;;;;;5088742;27;20010;-81
2021/12/31 17:12:17;;;;;;;;;;;11.80;99.90;;;;;;5101125;27;19924;-81
2021/12/31 17:14:43;;;;;;;;;;;11.90;99.90;;;;;;5090056;27;19930;-80
2021/12/31 17:17:09;;;;;;;;;;;11.90;99.90;;;;;;5102714;27;19923;-80
2021/12/31 17:19:35;;;;;;;;;;;11.90;99.90;;;;;;5105740;27;20319;-80
2021/12/31 17:22:11;;;;;;;;;;;11.90;99.90;;;;;;5071478;27;19924;-80
2021/12/31 17:24:47;;;;;;;;;;;12.00;99.90;;;;;;5109794;27;19927;-80
2021/12/31 17:27:14;;;;;;;;;;;12.00;99.90;;;;;;5088086;27;19930;-80
2021/12/31 17:29:40;;;;;;;;;;;11.90;99.90;;;;;;5081438;27;19955;-80
2021/12/31 17:32:15;;;;;;;;;;;12.00;99.90;;;;;;5110732;27;19989;-80
2021/12/31 17:34:43;;;;;;;;;;;12.00;99.90;;;;;;5091543;27;19928;-79
2021/12/31 17:37:09;;;;;;;;;;;12.00;99.90;;;;;;5106162;27;19963;-80
2021/12/31 17:39:34;;;;;;;;;;;12.00;99.90;;;;;;5083244;27;20360;-80
2021/12/31 17:42:00;;;;;;;;;;;12.00;99.90;;;;;;5090366;28;19924;-80
2021/12/31 17:44:26;;;;;;;;;;;11.90;99.90;;;;;;5075202;27;19924;-80
2021/12/31 17:46:54;;;;;;;;;;;11.90;99.90;;;;;;5104051;27;19927;-80
2021/12/31 17:49:19;;;;;;;;;;;11.90;99.90;;;;;;5103689;27;20031;-80